createdAt,value
2023-07-29T00:00:29.041Z,99213.47
2023-07-29T00:02:58.486Z,99204.75
2023-07-29T00:05:26.452Z,99200.06
2023-07-29T00:07:54.120Z,99200.41
2023-07-29T00:10:21.906Z,99189.91
2023-07-29T00:12:49.613Z,99195.75
2023-07-29T00:15:17.276Z,99194.47
2023-07-29T00:17:45.121Z,99189.81
2023-07-29T00:20:14.349Z,99193.19
2023-07-29T00:22:41.964Z,99191.44
2023-07-29T00:25:10.079Z,99174.06
2023-07-29T00:27:37.874Z,99182.22
2023-07-29T00:30:06.895Z,99178.81
2023-07-29T00:32:34.861Z,99183.81
2023-07-29T00:35:02.612Z,99174.31
2023-07-29T00:37:32.348Z,99174.75
2023-07-29T00:40:00.246Z,99183.63
2023-07-29T00:42:27.986Z,99173.25
2023-07-29T00:44:55.575Z,99167.44
2023-07-29T00:47:24.501Z,99166.03
2023-07-29T00:49:53.613Z,99178.03
2023-07-29T00:52:21.366Z,99173.63
2023-07-29T00:54:50.418Z,99177.56
2023-07-29T00:57:19.925Z,99173.72
2023-07-29T00:59:48.131Z,99166.91
2023-07-29T01:02:15.894Z,99176.97
2023-07-29T01:04:43.728Z,99170.94
2023-07-29T01:07:21.485Z,99151.91
2023-07-29T01:09:59.592Z,99142.63
2023-07-29T01:12:35.436Z,99147.97
2023-07-29T01:15:11.430Z,99150.69
2023-07-29T01:17:44.600Z,99147.84
2023-07-29T01:20:16.343Z,99138.75
2023-07-29T01:22:44.290Z,99143.38
2023-07-29T01:25:13.524Z,99142.44
2023-07-29T01:27:41.179Z,99140.91
2023-07-29T01:30:10.344Z,99132.09
2023-07-29T01:32:42.297Z,99137.56
2023-07-29T01:35:19.432Z,99145.78
2023-07-29T01:37:50.863Z,99139.47
2023-07-29T01:40:20.514Z,99141.34
2023-07-29T01:42:48.674Z,99141.53
2023-07-29T01:45:16.422Z,99138.53
2023-07-29T01:47:44.150Z,99150.84
2023-07-29T01:50:12.477Z,99142.72
2023-07-29T01:52:40.335Z,99138.88
2023-07-29T01:55:08.840Z,99133.72
2023-07-29T01:57:37.860Z,99132.94
2023-07-29T02:00:06.476Z,99134.00
2023-07-29T02:02:34.290Z,99132.59
2023-07-29T02:05:01.960Z,99128.50
2023-07-29T02:07:29.552Z,99127.78
2023-07-29T02:09:57.415Z,99126.66
2023-07-29T02:12:25.153Z,99126.31
2023-07-29T02:14:54.212Z,99130.38
2023-07-29T02:17:22.159Z,99134.09
2023-07-29T02:19:49.864Z,99127.78
2023-07-29T02:22:19.004Z,99126.41
2023-07-29T02:24:47.028Z,99119.75
2023-07-29T02:27:14.750Z,99131.28
2023-07-29T02:29:42.653Z,99122.88
2023-07-29T02:32:11.662Z,99121.22
2023-07-29T02:34:39.485Z,99123.81
2023-07-29T02:37:07.254Z,99122.19
2023-07-29T02:39:35.077Z,99121.38
2023-07-29T02:42:02.801Z,99119.19
2023-07-29T02:44:30.478Z,99112.66
2023-07-29T02:46:58.261Z,99112.16
2023-07-29T02:49:27.402Z,99103.09
2023-07-29T02:51:55.122Z,99099.25
2023-07-29T02:54:22.832Z,99102.16
2023-07-29T02:56:52.692Z,99096.22
2023-07-29T02:59:20.992Z,99091.34
2023-07-29T03:01:48.588Z,99081.56
2023-07-29T03:04:16.256Z,99091.50
2023-07-29T03:06:45.375Z,99093.34
2023-07-29T03:09:13.039Z,99101.19
2023-07-29T03:11:41.093Z,99112.25
2023-07-29T03:14:08.731Z,99102.91
2023-07-29T03:16:36.736Z,99093.34
2023-07-29T03:19:04.644Z,99092.19
2023-07-29T03:21:32.421Z,99082.78
2023-07-29T03:24:01.514Z,99080.34
2023-07-29T03:26:29.147Z,99072.47
2023-07-29T03:28:56.758Z,99059.84
2023-07-29T03:31:24.371Z,99059.50
2023-07-29T03:33:52.028Z,99059.19
2023-07-29T03:36:20.500Z,99066.66
2023-07-29T03:38:48.395Z,99055.69
2023-07-29T03:41:17.393Z,99059.06
2023-07-29T03:43:45.038Z,99064.22
2023-07-29T03:46:12.906Z,99069.31
2023-07-29T03:48:40.560Z,99080.25
2023-07-29T03:51:08.388Z,99084.38
2023-07-29T03:53:36.731Z,99082.59
2023-07-29T03:56:04.467Z,99084.31
2023-07-29T03:58:33.499Z,99080.88
2023-07-29T04:01:01.164Z,99079.69
2023-07-29T04:03:28.804Z,99079.31
2023-07-29T04:05:56.606Z,99064.66
2023-07-29T04:08:24.320Z,99063.56
2023-07-29T04:10:52.170Z,99068.63
2023-07-29T04:13:19.937Z,99078.94
2023-07-29T04:15:49.083Z,99072.63
2023-07-29T04:18:16.782Z,99076.31
2023-07-29T04:20:44.505Z,99072.16
2023-07-29T04:23:12.146Z,99071.97
2023-07-29T04:25:39.845Z,99075.72
2023-07-29T04:28:07.705Z,99061.00
2023-07-29T04:30:35.432Z,99059.78
2023-07-29T04:33:05.042Z,99055.06
2023-07-29T04:35:32.727Z,99056.19
2023-07-29T04:38:00.298Z,99055.41
2023-07-29T04:40:27.935Z,99061.28
2023-07-29T04:42:55.651Z,99069.41
2023-07-29T04:45:23.291Z,99073.66
2023-07-29T04:47:50.936Z,99077.53
2023-07-29T04:50:20.022Z,99070.00
2023-07-29T04:52:47.644Z,99071.44
2023-07-29T04:55:15.509Z,99075.72
2023-07-29T04:57:43.264Z,99082.75
2023-07-29T05:00:12.105Z,99096.38
2023-07-29T05:02:39.933Z,99090.94
2023-07-29T05:05:09.067Z,99097.50
2023-07-29T05:07:38.195Z,99094.59
2023-07-29T05:10:06.741Z,99087.44
2023-07-29T05:12:34.711Z,99070.28
2023-07-29T05:15:02.432Z,99086.28
2023-07-29T05:17:30.426Z,99097.31
2023-07-29T05:19:58.074Z,99090.16
2023-07-29T05:22:26.078Z,99082.00
2023-07-29T05:24:55.115Z,99079.34
2023-07-29T05:27:22.963Z,99080.44
2023-07-29T05:29:50.737Z,99084.75
2023-07-29T05:32:18.415Z,99087.50
2023-07-29T05:34:46.083Z,99092.13
2023-07-29T05:37:13.869Z,99085.13
2023-07-29T05:39:41.611Z,99092.66
2023-07-29T05:42:10.797Z,99092.22
2023-07-29T05:44:38.477Z,99099.91
2023-07-29T05:47:06.811Z,99095.72
2023-07-29T05:49:34.683Z,99091.00
2023-07-29T05:52:02.419Z,99090.66
2023-07-29T05:54:30.170Z,99093.53
2023-07-29T05:56:57.951Z,99093.25
2023-07-29T05:59:30.525Z,99091.00
2023-07-29T06:01:58.475Z,99094.28
2023-07-29T06:04:26.247Z,99101.22
2023-07-29T06:06:54.043Z,99103.31
2023-07-29T06:09:21.896Z,99096.09
2023-07-29T06:11:49.672Z,99094.94
2023-07-29T06:14:17.658Z,99084.66
2023-07-29T06:16:46.743Z,99094.00
2023-07-29T06:19:14.429Z,99098.91
2023-07-29T06:21:42.227Z,99108.75
2023-07-29T06:24:11.106Z,99102.19
2023-07-29T06:26:39.211Z,99096.88
2023-07-29T06:29:07.226Z,99104.91
2023-07-29T06:31:34.923Z,99107.50
2023-07-29T06:34:04.234Z,99104.47
2023-07-29T06:36:31.858Z,99107.97
2023-07-29T06:38:59.429Z,99103.34
2023-07-29T06:41:28.389Z,99106.59
2023-07-29T06:43:55.997Z,99105.38
2023-07-29T06:46:23.724Z,99100.25
2023-07-29T06:48:51.269Z,99093.47
2023-07-29T06:51:20.226Z,99092.59
2023-07-29T06:53:48.023Z,99099.19
2023-07-29T06:56:15.755Z,99099.84
2023-07-29T06:58:43.380Z,99110.41
2023-07-29T07:01:11.038Z,99098.97
2023-07-29T07:03:38.836Z,99103.72
2023-07-29T07:06:06.837Z,99110.53
2023-07-29T07:08:35.928Z,99116.53
2023-07-29T07:11:03.637Z,99107.94
2023-07-29T07:13:31.285Z,99113.56
2023-07-29T07:15:59.442Z,99121.16
2023-07-29T07:18:27.638Z,99114.78
2023-07-29T07:20:55.571Z,99109.00
2023-07-29T07:23:24.717Z,99114.03
2023-07-29T07:25:53.749Z,99113.69
2023-07-29T07:28:21.691Z,99123.19
2023-07-29T07:30:50.480Z,99123.53
2023-07-29T07:33:18.417Z,99130.44
2023-07-29T07:35:46.079Z,99145.97
2023-07-29T07:38:14.287Z,99150.69
2023-07-29T07:40:42.278Z,99157.59
2023-07-29T07:43:11.475Z,99154.44
2023-07-29T07:45:39.228Z,99162.81
2023-07-29T07:48:07.035Z,99159.22
2023-07-29T07:50:34.812Z,99164.09
2023-07-29T07:53:02.466Z,99145.31
2023-07-29T07:55:30.110Z,99144.13
2023-07-29T07:57:58.058Z,99135.25
2023-07-29T08:00:27.128Z,99144.25
2023-07-29T08:02:54.853Z,99145.00
2023-07-29T08:05:22.621Z,99152.97
2023-07-29T08:07:50.446Z,99150.84
2023-07-29T08:10:18.267Z,99155.09
2023-07-29T08:12:45.943Z,99154.22
2023-07-29T08:15:13.887Z,99160.22
2023-07-29T08:17:42.905Z,99152.00
2023-07-29T08:20:12.724Z,99154.97
2023-07-29T08:22:40.643Z,99147.97
2023-07-29T08:25:09.030Z,99139.75
2023-07-29T08:27:36.723Z,99141.78
2023-07-29T08:30:04.497Z,99135.38
2023-07-29T08:32:32.229Z,99130.38
2023-07-29T08:35:01.605Z,99140.28
2023-07-29T08:37:30.594Z,99139.28
2023-07-29T08:39:58.416Z,99135.19
2023-07-29T08:42:33.277Z,99140.44
2023-07-29T08:45:08.532Z,99150.25
2023-07-29T08:47:36.273Z,99157.78
2023-07-29T08:50:06.991Z,99163.38
2023-07-29T08:52:36.566Z,99157.91
2023-07-29T08:55:05.163Z,99153.38
2023-07-29T08:57:33.226Z,99161.13
2023-07-29T09:00:01.185Z,99158.56
2023-07-29T09:02:29.148Z,99156.94
2023-07-29T09:04:56.939Z,99160.44
2023-07-29T09:07:26.967Z,99156.50
2023-07-29T09:09:54.670Z,99155.97
2023-07-29T09:12:22.598Z,99151.97
2023-07-29T09:14:53.845Z,99146.66
2023-07-29T09:17:23.100Z,99147.50
2023-07-29T09:19:51.134Z,99155.47
2023-07-29T09:22:22.909Z,99151.69
2023-07-29T09:24:52.662Z,99143.69
2023-07-29T09:27:32.557Z,99152.38
2023-07-29T09:30:01.705Z,99144.25
2023-07-29T09:32:29.418Z,99143.34
2023-07-29T09:34:57.288Z,99146.41
2023-07-29T09:37:25.803Z,99131.25
2023-07-29T09:39:54.853Z,99131.56
2023-07-29T09:42:23.671Z,99133.19
2023-07-29T09:44:52.397Z,99130.69
2023-07-29T09:47:24.265Z,99132.59
2023-07-29T09:49:52.489Z,99121.19
2023-07-29T09:52:21.838Z,99120.38
2023-07-29T09:54:50.403Z,99120.19
2023-07-29T09:57:21.035Z,99116.69
2023-07-29T09:59:56.175Z,99139.72
2023-07-29T10:02:26.074Z,99134.19
2023-07-29T10:04:54.372Z,99132.41
2023-07-29T10:07:22.972Z,99131.16
2023-07-29T10:09:54.025Z,99115.63
2023-07-29T10:12:24.745Z,99109.75
2023-07-29T10:14:52.529Z,99116.72
2023-07-29T10:17:23.005Z,99112.50
2023-07-29T10:19:51.678Z,99115.06
2023-07-29T10:22:22.792Z,99123.72
2023-07-29T10:24:51.655Z,99117.88
2023-07-29T10:27:21.220Z,99116.03
2023-07-29T10:29:51.363Z,99122.34
2023-07-29T10:32:19.086Z,99115.56
2023-07-29T10:34:46.887Z,99109.19
2023-07-29T10:37:14.768Z,99116.56
2023-07-29T10:39:54.353Z,99114.34
2023-07-29T10:42:24.254Z,99132.47
2023-07-29T10:44:54.597Z,99125.25
2023-07-29T10:47:26.591Z,99118.03
2023-07-29T10:49:57.231Z,99125.53
2023-07-29T10:52:39.441Z,99117.38
2023-07-29T10:55:26.056Z,99112.09
2023-07-29T10:57:53.963Z,99114.16
2023-07-29T11:00:23.152Z,99112.06
2023-07-29T11:03:01.299Z,99107.34
2023-07-29T11:05:29.051Z,99115.09
2023-07-29T11:07:56.726Z,99112.44
2023-07-29T11:10:24.508Z,99118.09
2023-07-29T11:12:53.509Z,99104.38
2023-07-29T11:15:24.928Z,99102.00
2023-07-29T11:17:55.451Z,99093.41
2023-07-29T11:20:26.153Z,99094.59
2023-07-29T11:22:55.226Z,99093.56
2023-07-29T11:25:24.320Z,99089.84
2023-07-29T11:27:55.341Z,99080.06
2023-07-29T11:30:26.376Z,99081.25
2023-07-29T11:32:56.137Z,99086.97
2023-07-29T11:35:23.999Z,99079.38
2023-07-29T11:37:53.976Z,99091.00
2023-07-29T11:40:23.482Z,99081.97
2023-07-29T11:42:52.522Z,99081.94
2023-07-29T11:45:29.968Z,99073.13
2023-07-29T11:48:08.626Z,99082.31
2023-07-29T11:50:37.358Z,99072.44
2023-07-29T11:53:05.238Z,99078.47
2023-07-29T11:55:32.926Z,99076.44
2023-07-29T11:58:00.696Z,99085.81
2023-07-29T12:00:30.445Z,99074.19
2023-07-29T12:02:58.728Z,99078.25
2023-07-29T12:05:27.472Z,99084.69
2023-07-29T12:07:55.323Z,99083.44
2023-07-29T12:10:23.761Z,99079.50
2023-07-29T12:12:52.326Z,99088.53
2023-07-29T12:15:27.378Z,99081.97
2023-07-29T12:18:00.822Z,99096.38
2023-07-29T12:20:31.377Z,99075.72
2023-07-29T12:23:02.365Z,99079.38
2023-07-29T12:25:30.940Z,99078.38
2023-07-29T12:27:59.087Z,99087.91
2023-07-29T12:30:27.434Z,99089.81
2023-07-29T12:32:56.497Z,99100.22
2023-07-29T12:35:24.181Z,99084.84
2023-07-29T12:38:00.902Z,99088.63
2023-07-29T12:40:29.210Z,99090.56
2023-07-29T12:42:57.194Z,99086.16
2023-07-29T12:45:27.781Z,99083.16
2023-07-29T12:47:58.023Z,99093.31
2023-07-29T12:50:25.776Z,99094.91
2023-07-29T12:52:53.449Z,99087.16
2023-07-29T12:55:23.640Z,99084.84
2023-07-29T12:57:52.092Z,99084.84
2023-07-29T13:00:20.166Z,99082.59
2023-07-29T13:02:47.962Z,99097.88
2023-07-29T13:05:17.138Z,99088.34
2023-07-29T13:07:45.583Z,99087.56
2023-07-29T13:10:13.657Z,99075.22
2023-07-29T13:12:41.478Z,99087.00
2023-07-29T13:15:10.170Z,99076.59
2023-07-29T13:17:38.614Z,99073.50
2023-07-29T13:20:07.960Z,99073.31
2023-07-29T13:22:37.052Z,99071.78
2023-07-29T13:25:05.199Z,99066.75
2023-07-29T13:27:32.875Z,99067.56
2023-07-29T13:30:00.663Z,99068.50
2023-07-29T13:32:28.524Z,99071.56
2023-07-29T13:34:56.211Z,99062.66
2023-07-29T13:37:23.911Z,99059.78
2023-07-29T13:39:52.911Z,99060.09
2023-07-29T13:42:20.564Z,99061.09
2023-07-29T13:44:48.265Z,99056.44
2023-07-29T13:47:15.946Z,99065.66
2023-07-29T13:49:43.542Z,99064.91
2023-07-29T13:52:11.456Z,99058.63
2023-07-29T13:54:40.047Z,99075.66
2023-07-29T13:57:11.392Z,99058.91
2023-07-29T13:59:39.852Z,99075.81
2023-07-29T14:02:07.621Z,99084.16
2023-07-29T14:04:35.785Z,99088.91
2023-07-29T14:07:03.780Z,99080.19
2023-07-29T14:09:31.773Z,99094.16
2023-07-29T14:11:59.467Z,99083.28
2023-07-29T14:14:28.519Z,99081.25
2023-07-29T14:16:57.457Z,99063.13
2023-07-29T14:19:25.386Z,99080.69
2023-07-29T14:21:53.150Z,99072.72
2023-07-29T14:24:20.887Z,99073.66
2023-07-29T14:26:48.542Z,99076.75
2023-07-29T14:29:16.313Z,99087.94
2023-07-29T14:31:45.437Z,99084.94
2023-07-29T14:34:13.173Z,99071.19
2023-07-29T14:36:40.809Z,99083.81
2023-07-29T14:39:08.721Z,99085.16
2023-07-29T14:41:36.784Z,99086.06
2023-07-29T14:44:04.869Z,99091.38
2023-07-29T14:46:32.539Z,99079.91
2023-07-29T14:49:01.598Z,99087.88
2023-07-29T14:51:29.304Z,99075.13
2023-07-29T14:53:57.416Z,99069.81
2023-07-29T14:56:25.099Z,99077.28
2023-07-29T14:58:52.802Z,99079.16
2023-07-29T15:01:20.857Z,99083.41
2023-07-29T15:03:48.544Z,99077.25
2023-07-29T15:06:17.679Z,99079.88
2023-07-29T15:08:45.698Z,99081.50
2023-07-29T15:11:13.478Z,99076.81
2023-07-29T15:13:41.216Z,99072.72
2023-07-29T15:16:08.862Z,99068.22
2023-07-29T15:18:36.515Z,99066.16
2023-07-29T15:21:04.401Z,99080.38
2023-07-29T15:23:33.448Z,99072.34
2023-07-29T15:26:01.409Z,99067.25
2023-07-29T15:28:29.208Z,99058.41
2023-07-29T15:30:56.911Z,99063.53
2023-07-29T15:33:24.615Z,99064.41
2023-07-29T15:35:53.513Z,99057.59
2023-07-29T15:38:21.264Z,99063.59
2023-07-29T15:40:52.430Z,99056.78
2023-07-29T15:43:20.501Z,99063.94
2023-07-29T15:45:48.120Z,99058.28
2023-07-29T15:48:15.786Z,99050.88
2023-07-29T15:50:43.844Z,99047.97
2023-07-29T15:53:11.534Z,99050.59
2023-07-29T15:55:39.196Z,99048.44
2023-07-29T15:58:08.352Z,99043.69
2023-07-29T16:00:36.138Z,99050.50
2023-07-29T16:03:03.944Z,99060.41
2023-07-29T16:05:31.714Z,99054.41
2023-07-29T16:07:59.354Z,99054.84
2023-07-29T16:10:27.079Z,99061.94
2023-07-29T16:12:54.977Z,99056.78
2023-07-29T16:15:24.384Z,99049.31
2023-07-29T16:17:54.203Z,99060.41
2023-07-29T16:20:22.121Z,99059.78
2023-07-29T16:22:50.105Z,99061.19
2023-07-29T16:25:17.762Z,99063.41
2023-07-29T16:27:45.405Z,99059.19
2023-07-29T16:30:13.399Z,99063.38
2023-07-29T16:32:42.417Z,99061.53
2023-07-29T16:35:10.866Z,99070.31
2023-07-29T16:37:38.661Z,99071.13
2023-07-29T16:40:08.036Z,99070.25
2023-07-29T16:42:35.799Z,99069.34
2023-07-29T16:45:03.560Z,99068.41
2023-07-29T16:47:31.404Z,99071.97
2023-07-29T16:50:09.717Z,99076.41
2023-07-29T16:52:38.083Z,99081.91
2023-07-29T16:55:06.578Z,99079.00
2023-07-29T16:57:34.451Z,99089.09
2023-07-29T17:00:02.359Z,99090.09
2023-07-29T17:02:30.276Z,99084.47
2023-07-29T17:04:58.946Z,99084.47
2023-07-29T17:07:28.267Z,99083.34
2023-07-29T17:09:55.924Z,99078.91
2023-07-29T17:12:23.626Z,99086.75
2023-07-29T17:14:51.358Z,99084.09
2023-07-29T17:17:19.019Z,99083.53
2023-07-29T17:19:46.707Z,99075.69
2023-07-29T17:22:14.622Z,99076.75
2023-07-29T17:24:43.870Z,99073.72
2023-07-29T17:27:11.983Z,99074.06
2023-07-29T17:29:39.893Z,99075.69
2023-07-29T17:32:08.506Z,99082.72
2023-07-29T17:34:36.292Z,99085.94
2023-07-29T17:37:04.056Z,99080.25
2023-07-29T17:39:32.529Z,99072.97
2023-07-29T17:42:01.703Z,99077.53
2023-07-29T17:44:29.779Z,99078.66
2023-07-29T17:46:57.676Z,99072.53
2023-07-29T17:49:25.361Z,99067.28
2023-07-29T17:51:53.075Z,99068.78
2023-07-29T17:54:20.997Z,99072.97
2023-07-29T17:56:48.661Z,99079.53
2023-07-29T17:59:17.879Z,99076.09
2023-07-29T18:01:46.532Z,99082.63
2023-07-29T18:04:14.350Z,99088.41
2023-07-29T18:06:42.028Z,99085.16
2023-07-29T18:09:09.720Z,99084.94
2023-07-29T18:11:41.610Z,99088.16
2023-07-29T18:14:09.620Z,99088.75
2023-07-29T18:16:42.494Z,99086.09
2023-07-29T18:19:10.751Z,99093.91
2023-07-29T18:21:38.649Z,99092.78
2023-07-29T18:24:06.874Z,99091.19
2023-07-29T18:26:35.045Z,99088.25
2023-07-29T18:29:03.139Z,99088.53
2023-07-29T18:31:31.254Z,99094.47
2023-07-29T18:34:00.394Z,99092.84
2023-07-29T18:36:28.888Z,99086.34
2023-07-29T18:38:56.759Z,99089.91
2023-07-29T18:41:24.433Z,99093.44
2023-07-29T18:43:58.651Z,99097.75
2023-07-29T18:46:28.972Z,99094.78
2023-07-29T18:48:56.928Z,99090.47
2023-07-29T18:51:26.152Z,99089.66
2023-07-29T18:53:54.002Z,99095.59
2023-07-29T18:56:21.796Z,99097.19
2023-07-29T18:58:49.516Z,99091.28
2023-07-29T19:01:17.358Z,99098.56
2023-07-29T19:03:45.285Z,99102.88
2023-07-29T19:06:13.161Z,99098.28
2023-07-29T19:08:42.322Z,99104.78
2023-07-29T19:11:10.233Z,99107.19
2023-07-29T19:13:38.105Z,99108.53
2023-07-29T19:16:10.461Z,99113.38
2023-07-29T19:18:38.395Z,99109.34
2023-07-29T19:21:08.056Z,99116.91
2023-07-29T19:23:35.991Z,99119.84
2023-07-29T19:26:05.208Z,99115.78
2023-07-29T19:28:33.113Z,99113.59
2023-07-29T19:31:00.880Z,99113.84
2023-07-29T19:33:28.711Z,99124.94
2023-07-29T19:35:57.587Z,99137.38
2023-07-29T19:38:25.693Z,99140.03
2023-07-29T19:40:54.026Z,99133.28
2023-07-29T19:43:24.752Z,99142.44
2023-07-29T19:46:19.775Z,99136.56
2023-07-29T19:48:40.551Z,99138.56
2023-07-29T19:51:08.374Z,99142.84
2023-07-29T19:53:36.126Z,99135.88
2023-07-29T19:56:04.268Z,99130.47
2023-07-29T19:58:33.469Z,99125.63
2023-07-29T20:01:01.353Z,99129.38
2023-07-29T20:03:29.242Z,99134.47
2023-07-29T20:05:57.242Z,99129.59
2023-07-29T20:08:25.124Z,99129.59
2023-07-29T20:10:53.290Z,99131.38
2023-07-29T20:13:22.401Z,99142.53
2023-07-29T20:15:51.677Z,99151.53
2023-07-29T20:18:19.655Z,99160.03
2023-07-29T20:20:49.387Z,99160.25
2023-07-29T20:23:17.298Z,99148.50
2023-07-29T20:25:45.120Z,99141.69
2023-07-29T20:28:14.733Z,99141.03
2023-07-29T20:30:43.982Z,99139.22
2023-07-29T20:33:13.127Z,99144.47
2023-07-29T20:35:40.922Z,99147.38
2023-07-29T20:38:08.617Z,99137.72
2023-07-29T20:40:36.419Z,99147.66
2023-07-29T20:43:04.161Z,99152.22
2023-07-29T20:45:32.392Z,99174.50
2023-07-29T20:48:00.119Z,99162.66
2023-07-29T20:50:29.197Z,99169.22
2023-07-29T20:52:57.182Z,99155.59
2023-07-29T20:55:25.222Z,99161.34
2023-07-29T21:00:20.702Z,99164.47
2023-07-29T21:02:48.658Z,99163.69
2023-07-29T21:05:16.590Z,99165.59
2023-07-29T21:07:45.645Z,99171.00
2023-07-29T21:10:13.365Z,99181.72
2023-07-29T21:12:41.027Z,99174.66
2023-07-29T21:15:09.636Z,99161.66
2023-07-29T21:17:37.447Z,99169.16
2023-07-29T21:20:05.846Z,99169.94
2023-07-29T21:22:33.520Z,99176.59
2023-07-29T21:25:02.728Z,99177.16
2023-07-29T21:27:30.587Z,99170.47
2023-07-29T21:29:58.269Z,99175.97
2023-07-29T21:32:25.947Z,99201.50
2023-07-29T21:34:54.346Z,99208.00
2023-07-29T21:37:34.408Z,99212.41
2023-07-29T21:40:07.147Z,99212.16
2023-07-29T21:42:34.915Z,99206.97
2023-07-29T21:45:02.582Z,99211.00
2023-07-29T21:47:30.254Z,99203.44
2023-07-29T21:49:57.991Z,99200.00
2023-07-29T21:52:27.327Z,99190.81
2023-07-29T21:54:56.703Z,99199.78
2023-07-29T21:57:25.974Z,99201.91
2023-07-29T21:59:53.899Z,99200.47
2023-07-29T22:02:22.092Z,99200.06
2023-07-29T22:04:49.883Z,99199.72
2023-07-29T22:07:18.414Z,99200.19
2023-07-29T22:09:46.129Z,99197.88
2023-07-29T22:12:14.015Z,99195.19
2023-07-29T22:14:44.981Z,99195.94
2023-07-29T22:17:12.807Z,99187.13
2023-07-29T22:19:40.950Z,99188.94
2023-07-29T22:22:08.686Z,99189.75
2023-07-29T22:24:36.485Z,99184.72
2023-07-29T22:27:05.338Z,99168.22
2023-07-29T22:29:33.014Z,99152.00
2023-07-29T22:32:02.353Z,99150.78
2023-07-29T22:34:30.149Z,99159.34
2023-07-29T22:36:57.784Z,99155.63
2023-07-29T22:39:25.516Z,99163.13
2023-07-29T22:41:53.591Z,99188.22
2023-07-29T22:44:21.301Z,99190.25
2023-07-29T22:46:49.019Z,99189.72
2023-07-29T22:49:18.098Z,99197.91
2023-07-29T22:51:45.795Z,99197.75
2023-07-29T22:54:13.686Z,99208.91
2023-07-29T22:56:41.403Z,99207.97
2023-07-29T22:59:09.938Z,99206.47
2023-07-29T23:01:37.668Z,99209.75
2023-07-29T23:04:05.810Z,99209.53
2023-07-29T23:06:34.839Z,99216.00
2023-07-29T23:09:02.789Z,99214.94
2023-07-29T23:11:30.449Z,99214.38
2023-07-29T23:13:58.142Z,99216.84
2023-07-29T23:16:47.296Z,99212.25
2023-07-29T23:19:15.085Z,99211.06
2023-07-29T23:21:44.082Z,99200.34
2023-07-29T23:24:11.731Z,99194.34
2023-07-29T23:26:39.385Z,99189.78
2023-07-29T23:29:07.064Z,99198.75
2023-07-29T23:31:34.772Z,99202.06
2023-07-29T23:34:02.432Z,99202.28
2023-07-29T23:36:30.047Z,99216.31
2023-07-29T23:38:59.048Z,99226.84
2023-07-29T23:41:26.858Z,99239.66
2023-07-29T23:43:54.514Z,99224.16
2023-07-29T23:46:22.145Z,99223.78
2023-07-29T23:48:49.918Z,99223.25
2023-07-29T23:51:17.826Z,99228.69
2023-07-29T23:53:45.500Z,99228.47
2023-07-29T23:56:16.165Z,99228.59
2023-07-29T23:58:44.091Z,99231.03
